sensor_id;sensor_type;location;lat;lon;timestamp;temperature;humidity
1786;DHT22;890;48.158;11.540;2022-08-01T00:00:25;24.40;56.90
1786;DHT22;890;48.158;11.540;2022-08-01T00:02:51;24.40;57.00
1786;DHT22;890;48.158;11.540;2022-08-01T00:05:16;24.30;57.10
1786;DHT22;890;48.158;11.540;2022-08-01T00:07:42;24.20;57.20
1786;DHT22;890;48.158;11.540;2022-08-01T00:10:10;24.10;57.20
1786;DHT22;890;48.158;11.540;2022-08-01T00:12:37;24.10;57.30
1786;DHT22;890;48.158;11.540;2022-08-01T00:15:04;24.20;57.50
1786;DHT22;890;48.158;11.540;2022-08-01T00:17:31;24.10;57.50
1786;DHT22;890;48.158;11.540;2022-08-01T00:19:56;24.10;57.60
1786;DHT22;890;48.158;11.540;2022-08-01T00:22:22;24.00;57.70
1786;DHT22;890;48.158;11.540;2022-08-01T00:24:48;23.90;57.80
1786;DHT22;890;48.158;11.540;2022-08-01T00:27:13;23.80;57.90
1786;DHT22;890;48.158;11.540;2022-08-01T00:29:39;23.70;58.10
1786;DHT22;890;48.158;11.540;2022-08-01T00:32:05;23.70;58.40
1786;DHT22;890;48.158;11.540;2022-08-01T00:34:30;23.60;58.40
1786;DHT22;890;48.158;11.540;2022-08-01T00:36:56;23.60;58.50
1786;DHT22;890;48.158;11.540;2022-08-01T00:39:21;23.50;58.50
1786;DHT22;890;48.158;11.540;2022-08-01T00:41:47;23.50;58.60
1786;DHT22;890;48.158;11.540;2022-08-01T00:44:12;23.50;58.60
1786;DHT22;890;48.158;11.540;2022-08-01T00:46:38;23.40;58.60
1786;DHT22;890;48.158;11.540;2022-08-01T00:49:04;23.50;58.70
1786;DHT22;890;48.158;11.540;2022-08-01T00:51:30;23.40;58.70
1786;DHT22;890;48.158;11.540;2022-08-01T00:53:56;23.40;58.80
1786;DHT22;890;48.158;11.540;2022-08-01T00:56:24;23.30;58.80
1786;DHT22;890;48.158;11.540;2022-08-01T00:58:51;23.30;58.90
1786;DHT22;890;48.158;11.540;2022-08-01T01:01:17;23.30;58.90
1786;DHT22;890;48.158;11.540;2022-08-01T01:03:46;23.20;58.90
1786;DHT22;890;48.158;11.540;2022-08-01T01:09:23;23.10;59.00
1786;DHT22;890;48.158;11.540;2022-08-01T01:17:19;23.20;59.00
1786;DHT22;890;48.158;11.540;2022-08-01T01:19:51;23.20;59.20
1786;DHT22;890;48.158;11.540;2022-08-01T01:22:34;23.00;59.20
1786;DHT22;890;48.158;11.540;2022-08-01T01:28:27;22.90;59.40
1786;DHT22;890;48.158;11.540;2022-08-01T01:30:56;22.80;59.40
1786;DHT22;890;48.158;11.540;2022-08-01T01:33:25;22.90;59.50
1786;DHT22;890;48.158;11.540;2022-08-01T01:36:00;22.90;59.70
1786;DHT22;890;48.158;11.540;2022-08-01T01:38:29;22.80;59.60
1786;DHT22;890;48.158;11.540;2022-08-01T01:40:57;22.70;59.70
1786;DHT22;890;48.158;11.540;2022-08-01T01:43:25;22.80;59.90
1786;DHT22;890;48.158;11.540;2022-08-01T01:45:52;22.70;60.10
1786;DHT22;890;48.158;11.540;2022-08-01T01:48:19;22.70;60.10
1786;DHT22;890;48.158;11.540;2022-08-01T01:50:49;22.60;60.10
1786;DHT22;890;48.158;11.540;2022-08-01T01:53:19;22.50;60.20
1786;DHT22;890;48.158;11.540;2022-08-01T01:55:47;22.50;60.30
1786;DHT22;890;48.158;11.540;2022-08-01T01:58:14;22.60;60.40
1786;DHT22;890;48.158;11.540;2022-08-01T02:00:42;22.50;60.40
1786;DHT22;890;48.158;11.540;2022-08-01T02:03:11;22.50;60.50
1786;DHT22;890;48.158;11.540;2022-08-01T02:05:38;22.50;60.80
1786;DHT22;890;48.158;11.540;2022-08-01T02:08:04;22.50;60.40
1786;DHT22;890;48.158;11.540;2022-08-01T02:10:32;22.50;60.30
1786;DHT22;890;48.158;11.540;2022-08-01T02:13:01;22.60;60.30
1786;DHT22;890;48.158;11.540;2022-08-01T02:15:30;22.60;60.20
1786;DHT22;890;48.158;11.540;2022-08-01T02:17:57;22.50;60.10
1786;DHT22;890;48.158;11.540;2022-08-01T02:20:24;22.50;60.10
1786;DHT22;890;48.158;11.540;2022-08-01T02:22:55;22.50;60.20
1786;DHT22;890;48.158;11.540;2022-08-01T02:25:27;22.50;60.20
1786;DHT22;890;48.158;11.540;2022-08-01T02:28:01;22.40;60.30
1786;DHT22;890;48.158;11.540;2022-08-01T02:30:37;22.30;60.30
1786;DHT22;890;48.158;11.540;2022-08-01T02:33:14;22.30;60.40
1786;DHT22;890;48.158;11.540;2022-08-01T02:35:42;22.30;60.30
1786;DHT22;890;48.158;11.540;2022-08-01T02:38:10;22.40;60.40
1786;DHT22;890;48.158;11.540;2022-08-01T02:40:38;22.30;60.40
1786;DHT22;890;48.158;11.540;2022-08-01T02:43:05;22.30;60.50
1786;DHT22;890;48.158;11.540;2022-08-01T02:45:32;22.20;60.50
1786;DHT22;890;48.158;11.540;2022-08-01T02:48:06;22.20;60.60
1786;DHT22;890;48.158;11.540;2022-08-01T02:50:34;22.20;60.60
1786;DHT22;890;48.158;11.540;2022-08-01T02:53:01;22.20;60.60
1786;DHT22;890;48.158;11.540;2022-08-01T02:55:28;22.30;60.80
1786;DHT22;890;48.158;11.540;2022-08-01T02:57:55;22.20;60.80
1786;DHT22;890;48.158;11.540;2022-08-01T03:00:22;22.20;60.70
1786;DHT22;890;48.158;11.540;2022-08-01T03:02:49;22.10;60.70
1786;DHT22;890;48.158;11.540;2022-08-01T03:05:17;22.10;60.80
1786;DHT22;890;48.158;11.540;2022-08-01T03:07:43;22.00;60.70
1786;DHT22;890;48.158;11.540;2022-08-01T03:10:10;22.00;60.70
1786;DHT22;890;48.158;11.540;2022-08-01T03:12:36;22.00;60.80
1786;DHT22;890;48.158;11.540;2022-08-01T03:15:03;22.00;60.90
1786;DHT22;890;48.158;11.540;2022-08-01T03:17:30;22.00;60.90
1786;DHT22;890;48.158;11.540;2022-08-01T03:19:58;22.00;60.80
1786;DHT22;890;48.158;11.540;2022-08-01T03:22:27;22.00;60.70
1786;DHT22;890;48.158;11.540;2022-08-01T03:24:56;22.00;60.70
1786;DHT22;890;48.158;11.540;2022-08-01T03:27:23;22.00;60.70
1786;DHT22;890;48.158;11.540;2022-08-01T03:29:50;22.00;60.70
1786;DHT22;890;48.158;11.540;2022-08-01T03:32:18;21.90;60.70
1786;DHT22;890;48.158;11.540;2022-08-01T03:34:45;21.90;60.80
1786;DHT22;890;48.158;11.540;2022-08-01T03:39:49;21.80;60.90
1786;DHT22;890;48.158;11.540;2022-08-01T03:42:18;21.80;61.10
1786;DHT22;890;48.158;11.540;2022-08-01T03:44:52;21.80;61.10
1786;DHT22;890;48.158;11.540;2022-08-01T03:47:21;21.80;61.20
1786;DHT22;890;48.158;11.540;2022-08-01T03:49:48;21.70;61.30
1786;DHT22;890;48.158;11.540;2022-08-01T03:52:16;21.70;61.30
1786;DHT22;890;48.158;11.540;2022-08-01T03:54:47;21.70;61.40
1786;DHT22;890;48.158;11.540;2022-08-01T03:57:13;21.70;61.70
1786;DHT22;890;48.158;11.540;2022-08-01T03:59:39;21.70;61.70
1786;DHT22;890;48.158;11.540;2022-08-01T04:02:06;21.60;61.70
1786;DHT22;890;48.158;11.540;2022-08-01T04:04:32;21.60;61.80
1786;DHT22;890;48.158;11.540;2022-08-01T04:06:59;21.60;61.90
1786;DHT22;890;48.158;11.540;2022-08-01T04:09:30;21.60;62.00
1786;DHT22;890;48.158;11.540;2022-08-01T04:11:57;21.60;62.00
1786;DHT22;890;48.158;11.540;2022-08-01T04:14:23;21.60;62.10
1786;DHT22;890;48.158;11.540;2022-08-01T04:16:49;21.50;62.20
1786;DHT22;890;48.158;11.540;2022-08-01T04:19:14;21.50;62.30
1786;DHT22;890;48.158;11.540;2022-08-01T04:21:40;21.50;62.30
1786;DHT22;890;48.158;11.540;2022-08-01T04:24:24;21.50;62.30
1786;DHT22;890;48.158;11.540;2022-08-01T04:26:52;21.40;62.20
1786;DHT22;890;48.158;11.540;2022-08-01T04:29:19;21.50;62.50
1786;DHT22;890;48.158;11.540;2022-08-01T04:31:48;21.50;62.60
1786;DHT22;890;48.158;11.540;2022-08-01T04:34:16;21.50;62.60
1786;DHT22;890;48.158;11.540;2022-08-01T04:36:44;21.50;62.70
1786;DHT22;890;48.158;11.540;2022-08-01T04:39:11;21.60;62.60
1786;DHT22;890;48.158;11.540;2022-08-01T04:41:37;21.60;62.60
1786;DHT22;890;48.158;11.540;2022-08-01T04:44:04;21.60;62.70
1786;DHT22;890;48.158;11.540;2022-08-01T04:46:31;21.60;62.60
1786;DHT22;890;48.158;11.540;2022-08-01T04:48:58;21.60;62.50
1786;DHT22;890;48.158;11.540;2022-08-01T04:51:25;21.70;62.50
1786;DHT22;890;48.158;11.540;2022-08-01T04:53:51;21.70;62.30
1786;DHT22;890;48.158;11.540;2022-08-01T04:56:18;21.80;62.20
1786;DHT22;890;48.158;11.540;2022-08-01T04:58:46;21.80;62.20
1786;DHT22;890;48.158;11.540;2022-08-01T05:01:12;21.80;62.20
1786;DHT22;890;48.158;11.540;2022-08-01T05:03:38;21.80;62.10
1786;DHT22;890;48.158;11.540;2022-08-01T05:06:04;21.90;62.30
1786;DHT22;890;48.158;11.540;2022-08-01T05:08:29;21.80;62.10
1786;DHT22;890;48.158;11.540;2022-08-01T05:10:55;21.90;62.20
1786;DHT22;890;48.158;11.540;2022-08-01T05:13:21;21.90;62.00
1786;DHT22;890;48.158;11.540;2022-08-01T05:15:47;22.00;62.00
1786;DHT22;890;48.158;11.540;2022-08-01T05:18:12;22.00;62.00
1786;DHT22;890;48.158;11.540;2022-08-01T05:20:38;22.00;62.00
1786;DHT22;890;48.158;11.540;2022-08-01T05:23:04;22.00;62.00
1786;DHT22;890;48.158;11.540;2022-08-01T05:25:30;22.00;62.00
1786;DHT22;890;48.158;11.540;2022-08-01T05:27:55;22.00;61.90
1786;DHT22;890;48.158;11.540;2022-08-01T05:30:21;22.10;62.00
1786;DHT22;890;48.158;11.540;2022-08-01T05:32:47;22.10;61.80
1786;DHT22;890;48.158;11.540;2022-08-01T05:35:12;22.20;61.80
1786;DHT22;890;48.158;11.540;2022-08-01T05:37:38;22.20;61.60
1786;DHT22;890;48.158;11.540;2022-08-01T05:40:04;22.30;61.60
1786;DHT22;890;48.158;11.540;2022-08-01T05:42:30;22.40;61.60
1786;DHT22;890;48.158;11.540;2022-08-01T05:44:56;22.50;61.60
1786;DHT22;890;48.158;11.540;2022-08-01T05:47:21;22.60;61.20
1786;DHT22;890;48.158;11.540;2022-08-01T05:49:47;22.60;61.10
1786;DHT22;890;48.158;11.540;2022-08-01T05:52:13;22.70;61.10
1786;DHT22;890;48.158;11.540;2022-08-01T05:54:39;22.80;61.00
1786;DHT22;890;48.158;11.540;2022-08-01T05:57:05;22.90;61.00
1786;DHT22;890;48.158;11.540;2022-08-01T05:59:31;23.00;60.80
1786;DHT22;890;48.158;11.540;2022-08-01T06:01:56;23.10;60.60
1786;DHT22;890;48.158;11.540;2022-08-01T06:04:22;23.20;60.40
1786;DHT22;890;48.158;11.540;2022-08-01T06:06:48;23.30;59.80
1786;DHT22;890;48.158;11.540;2022-08-01T06:09:13;23.40;59.70
1786;DHT22;890;48.158;11.540;2022-08-01T06:11:39;23.40;59.40
1786;DHT22;890;48.158;11.540;2022-08-01T06:14:05;23.50;59.40
1786;DHT22;890;48.158;11.540;2022-08-01T06:16:31;23.60;59.10
1786;DHT22;890;48.158;11.540;2022-08-01T06:18:56;23.60;58.90
1786;DHT22;890;48.158;11.540;2022-08-01T06:21:22;23.70;58.90
1786;DHT22;890;48.158;11.540;2022-08-01T06:23:47;23.60;58.90
1786;DHT22;890;48.158;11.540;2022-08-01T06:26:13;23.60;58.90
1786;DHT22;890;48.158;11.540;2022-08-01T06:28:38;23.70;58.90
1786;DHT22;890;48.158;11.540;2022-08-01T06:31:04;23.80;58.80
1786;DHT22;890;48.158;11.540;2022-08-01T06:33:30;23.80;58.70
1786;DHT22;890;48.158;11.540;2022-08-01T06:35:56;23.90;58.60
1786;DHT22;890;48.158;11.540;2022-08-01T06:38:21;23.90;58.50
1786;DHT22;890;48.158;11.540;2022-08-01T06:40:47;24.00;58.50
1786;DHT22;890;48.158;11.540;2022-08-01T06:43:13;24.10;58.20
1786;DHT22;890;48.158;11.540;2022-08-01T06:45:39;24.30;58.00
1786;DHT22;890;48.158;11.540;2022-08-01T06:48:05;24.40;57.70
1786;DHT22;890;48.158;11.540;2022-08-01T06:50:31;24.40;57.50
1786;DHT22;890;48.158;11.540;2022-08-01T06:52:57;24.40;57.50
1786;DHT22;890;48.158;11.540;2022-08-01T06:55:22;24.40;57.40
1786;DHT22;890;48.158;11.540;2022-08-01T06:57:50;24.40;57.30
1786;DHT22;890;48.158;11.540;2022-08-01T07:00:16;24.50;57.30
1786;DHT22;890;48.158;11.540;2022-08-01T07:02:46;24.50;57.20
1786;DHT22;890;48.158;11.540;2022-08-01T07:05:12;24.60;57.30
1786;DHT22;890;48.158;11.540;2022-08-01T07:07:38;24.60;57.20
1786;DHT22;890;48.158;11.540;2022-08-01T07:10:04;24.70;57.20
1786;DHT22;890;48.158;11.540;2022-08-01T07:12:30;24.70;57.10
1786;DHT22;890;48.158;11.540;2022-08-01T07:14:56;24.70;56.90
1786;DHT22;890;48.158;11.540;2022-08-01T07:17:21;24.70;56.90
1786;DHT22;890;48.158;11.540;2022-08-01T07:19:47;24.70;56.90
1786;DHT22;890;48.158;11.540;2022-08-01T07:22:13;24.70;57.00
1786;DHT22;890;48.158;11.540;2022-08-01T07:24:39;24.70;57.00
1786;DHT22;890;48.158;11.540;2022-08-01T07:27:07;24.80;57.00
1786;DHT22;890;48.158;11.540;2022-08-01T07:29:32;24.80;57.00
1786;DHT22;890;48.158;11.540;2022-08-01T07:31:58;24.80;57.10
1786;DHT22;890;48.158;11.540;2022-08-01T07:34:24;24.90;57.00
1786;DHT22;890;48.158;11.540;2022-08-01T07:36:51;24.90;56.80
1786;DHT22;890;48.158;11.540;2022-08-01T07:39:17;25.00;56.90
1786;DHT22;890;48.158;11.540;2022-08-01T07:41:43;25.00;56.60
1786;DHT22;890;48.158;11.540;2022-08-01T07:44:08;25.10;56.60
1786;DHT22;890;48.158;11.540;2022-08-01T07:46:34;25.10;56.70
1786;DHT22;890;48.158;11.540;2022-08-01T07:48:59;25.20;56.80
1786;DHT22;890;48.158;11.540;2022-08-01T07:51:25;25.30;56.80
1786;DHT22;890;48.158;11.540;2022-08-01T07:53:51;25.40;56.70
1786;DHT22;890;48.158;11.540;2022-08-01T07:56:16;25.50;56.20
1786;DHT22;890;48.158;11.540;2022-08-01T07:58:42;25.60;55.80
1786;DHT22;890;48.158;11.540;2022-08-01T08:01:08;25.60;56.10
1786;DHT22;890;48.158;11.540;2022-08-01T08:03:33;25.40;55.90
1786;DHT22;890;48.158;11.540;2022-08-01T08:05:59;25.40;56.10
1786;DHT22;890;48.158;11.540;2022-08-01T08:08:24;25.40;56.20
1786;DHT22;890;48.158;11.540;2022-08-01T08:10:50;25.30;56.30
1786;DHT22;890;48.158;11.540;2022-08-01T08:13:16;25.40;56.30
1786;DHT22;890;48.158;11.540;2022-08-01T08:15:41;25.50;56.20
1786;DHT22;890;48.158;11.540;2022-08-01T08:18:07;25.60;56.00
1786;DHT22;890;48.158;11.540;2022-08-01T08:20:33;25.60;56.10
1786;DHT22;890;48.158;11.540;2022-08-01T08:22:59;25.60;56.10
1786;DHT22;890;48.158;11.540;2022-08-01T08:25:25;25.60;56.10
1786;DHT22;890;48.158;11.540;2022-08-01T08:27:51;25.60;56.10
1786;DHT22;890;48.158;11.540;2022-08-01T08:30:17;25.60;56.20
1786;DHT22;890;48.158;11.540;2022-08-01T08:32:43;25.60;56.20
1786;DHT22;890;48.158;11.540;2022-08-01T08:35:09;25.60;56.10
1786;DHT22;890;48.158;11.540;2022-08-01T08:37:35;25.80;55.90
1786;DHT22;890;48.158;11.540;2022-08-01T08:40:03;25.70;56.00
1786;DHT22;890;48.158;11.540;2022-08-01T08:42:29;25.80;55.60
1786;DHT22;890;48.158;11.540;2022-08-01T08:44:54;25.60;55.80
1786;DHT22;890;48.158;11.540;2022-08-01T08:47:21;25.70;55.90
1786;DHT22;890;48.158;11.540;2022-08-01T08:49:49;25.70;55.90
1786;DHT22;890;48.158;11.540;2022-08-01T08:52:18;25.80;55.70
1786;DHT22;890;48.158;11.540;2022-08-01T08:54:45;25.80;55.70
1786;DHT22;890;48.158;11.540;2022-08-01T08:57:13;25.90;55.60
1786;DHT22;890;48.158;11.540;2022-08-01T08:59:39;25.80;55.70
1786;DHT22;890;48.158;11.540;2022-08-01T09:02:05;25.80;56.20
1786;DHT22;890;48.158;11.540;2022-08-01T09:04:32;25.90;56.10
1786;DHT22;890;48.158;11.540;2022-08-01T09:06:58;26.00;55.90
1786;DHT22;890;48.158;11.540;2022-08-01T09:09:23;26.10;55.50
1786;DHT22;890;48.158;11.540;2022-08-01T09:11:49;26.20;55.00
1786;DHT22;890;48.158;11.540;2022-08-01T09:14:19;26.20;55.00
1786;DHT22;890;48.158;11.540;2022-08-01T09:17:05;26.20;55.00
1786;DHT22;890;48.158;11.540;2022-08-01T09:19:44;26.10;54.70
1786;DHT22;890;48.158;11.540;2022-08-01T09:22:15;26.30;54.60
1786;DHT22;890;48.158;11.540;2022-08-01T09:24:57;26.40;54.80
1786;DHT22;890;48.158;11.540;2022-08-01T09:27:22;26.40;54.40
1786;DHT22;890;48.158;11.540;2022-08-01T09:29:51;26.50;54.60
1786;DHT22;890;48.158;11.540;2022-08-01T09:32:17;26.50;54.80
1786;DHT22;890;48.158;11.540;2022-08-01T09:34:43;26.50;54.70
1786;DHT22;890;48.158;11.540;2022-08-01T09:37:11;26.50;54.30
1786;DHT22;890;48.158;11.540;2022-08-01T09:39:38;26.60;54.20
1786;DHT22;890;48.158;11.540;2022-08-01T09:42:25;26.70;53.80
1786;DHT22;890;48.158;11.540;2022-08-01T09:44:51;26.70;52.80
1786;DHT22;890;48.158;11.540;2022-08-01T09:47:19;27.00;52.80
1786;DHT22;890;48.158;11.540;2022-08-01T09:49:53;27.40;55.60
1786;DHT22;890;48.158;11.540;2022-08-01T09:52:22;28.20;57.10
1786;DHT22;890;48.158;11.540;2022-08-01T09:54:59;29.10;56.60
1786;DHT22;890;48.158;11.540;2022-08-01T09:57:25;30.10;54.50
1786;DHT22;890;48.158;11.540;2022-08-01T09:59:57;31.10;53.70
1786;DHT22;890;48.158;11.540;2022-08-01T10:02:32;31.40;51.10
1786;DHT22;890;48.158;11.540;2022-08-01T10:04:59;32.00;49.40
1786;DHT22;890;48.158;11.540;2022-08-01T10:07:25;32.80;48.50
1786;DHT22;890;48.158;11.540;2022-08-01T10:09:51;33.10;47.70
1786;DHT22;890;48.158;11.540;2022-08-01T10:12:19;33.30;46.50
1786;DHT22;890;48.158;11.540;2022-08-01T10:14:47;33.40;45.70
1786;DHT22;890;48.158;11.540;2022-08-01T10:17:16;33.80;44.50
1786;DHT22;890;48.158;11.540;2022-08-01T10:19:43;33.60;44.40
1786;DHT22;890;48.158;11.540;2022-08-01T10:22:12;33.60;43.90
1786;DHT22;890;48.158;11.540;2022-08-01T10:24:45;33.80;43.30
1786;DHT22;890;48.158;11.540;2022-08-01T10:27:14;33.90;43.20
1786;DHT22;890;48.158;11.540;2022-08-01T10:32:15;34.10;42.60
1786;DHT22;890;48.158;11.540;2022-08-01T10:34:41;34.40;41.80
1786;DHT22;890;48.158;11.540;2022-08-01T10:37:07;34.40;41.70
1786;DHT22;890;48.158;11.540;2022-08-01T10:39:34;34.30;41.40
1786;DHT22;890;48.158;11.540;2022-08-01T10:42:00;34.60;41.10
1786;DHT22;890;48.158;11.540;2022-08-01T10:44:28;34.70;40.90
1786;DHT22;890;48.158;11.540;2022-08-01T10:47:01;34.90;40.60
1786;DHT22;890;48.158;11.540;2022-08-01T10:49:31;34.80;40.00
1786;DHT22;890;48.158;11.540;2022-08-01T10:52:04;34.80;40.20
1786;DHT22;890;48.158;11.540;2022-08-01T10:54:38;34.70;40.20
1786;DHT22;890;48.158;11.540;2022-08-01T10:57:05;35.20;40.50
1786;DHT22;890;48.158;11.540;2022-08-01T10:59:32;34.40;38.80
1786;DHT22;890;48.158;11.540;2022-08-01T11:02:03;34.20;39.80
1786;DHT22;890;48.158;11.540;2022-08-01T11:04:37;34.40;39.30
1786;DHT22;890;48.158;11.540;2022-08-01T11:07:11;34.30;39.70
1786;DHT22;890;48.158;11.540;2022-08-01T11:09:42;34.70;38.80
1786;DHT22;890;48.158;11.540;2022-08-01T11:17:34;34.80;38.00
1786;DHT22;890;48.158;11.540;2022-08-01T11:20:10;35.20;37.80
1786;DHT22;890;48.158;11.540;2022-08-01T11:28:19;34.50;38.10
1786;DHT22;890;48.158;11.540;2022-08-01T11:30:53;34.50;36.80
1786;DHT22;890;48.158;11.540;2022-08-01T11:38:49;33.30;39.20
1786;DHT22;890;48.158;11.540;2022-08-01T11:41:17;33.90;38.40
1786;DHT22;890;48.158;11.540;2022-08-01T11:46:50;33.90;38.10
1786;DHT22;890;48.158;11.540;2022-08-01T11:52:40;35.00;37.00
1786;DHT22;890;48.158;11.540;2022-08-01T11:55:05;35.10;36.80
1786;DHT22;890;48.158;11.540;2022-08-01T11:57:32;35.20;36.00
1786;DHT22;890;48.158;11.540;2022-08-01T12:00:14;35.10;36.10
1786;DHT22;890;48.158;11.540;2022-08-01T12:02:40;35.00;36.00
1786;DHT22;890;48.158;11.540;2022-08-01T12:05:11;34.90;35.90
1786;DHT22;890;48.158;11.540;2022-08-01T12:07:38;34.50;35.70
1786;DHT22;890;48.158;11.540;2022-08-01T12:10:15;34.70;36.20
1786;DHT22;890;48.158;11.540;2022-08-01T12:12:52;35.40;35.50
1786;DHT22;890;48.158;11.540;2022-08-01T12:15:20;35.60;34.70
1786;DHT22;890;48.158;11.540;2022-08-01T12:18:06;35.20;35.10
1786;DHT22;890;48.158;11.540;2022-08-01T12:20:33;35.20;35.30
1786;DHT22;890;48.158;11.540;2022-08-01T12:23:03;35.10;35.50
1786;DHT22;890;48.158;11.540;2022-08-01T12:25:31;35.30;35.40
1786;DHT22;890;48.158;11.540;2022-08-01T12:28:04;35.60;34.80
1786;DHT22;890;48.158;11.540;2022-08-01T12:30:31;35.70;34.40
1786;DHT22;890;48.158;11.540;2022-08-01T12:33:00;35.00;34.10
1786;DHT22;890;48.158;11.540;2022-08-01T12:35:28;34.30;34.70
1786;DHT22;890;48.158;11.540;2022-08-01T12:37:56;34.40;35.10
1786;DHT22;890;48.158;11.540;2022-08-01T12:40:26;34.90;34.70
1786;DHT22;890;48.158;11.540;2022-08-01T12:42:54;34.60;34.40
1786;DHT22;890;48.158;11.540;2022-08-01T12:45:26;33.80;35.10
1786;DHT22;890;48.158;11.540;2022-08-01T12:47:53;33.40;35.40
1786;DHT22;890;48.158;11.540;2022-08-01T12:50:22;32.90;36.10
1786;DHT22;890;48.158;11.540;2022-08-01T12:52:49;32.70;36.40
1786;DHT22;890;48.158;11.540;2022-08-01T12:55:16;32.70;36.00
1786;DHT22;890;48.158;11.540;2022-08-01T12:58:03;32.20;36.30
1786;DHT22;890;48.158;11.540;2022-08-01T13:00:30;32.00;37.00
1786;DHT22;890;48.158;11.540;2022-08-01T13:03:06;31.60;37.30
1786;DHT22;890;48.158;11.540;2022-08-01T13:05:49;31.40;37.50
1786;DHT22;890;48.158;11.540;2022-08-01T13:08:18;31.20;38.20
1786;DHT22;890;48.158;11.540;2022-08-01T13:10:45;30.90;38.30
1786;DHT22;890;48.158;11.540;2022-08-01T13:13:12;30.60;38.60
1786;DHT22;890;48.158;11.540;2022-08-01T13:15:40;30.50;39.20
1786;DHT22;890;48.158;11.540;2022-08-01T13:18:26;30.20;39.80
1786;DHT22;890;48.158;11.540;2022-08-01T13:21:11;29.70;41.00
1786;DHT22;890;48.158;11.540;2022-08-01T13:23:39;29.10;44.20
1786;DHT22;890;48.158;11.540;2022-08-01T13:26:05;28.40;45.90
1786;DHT22;890;48.158;11.540;2022-08-01T13:28:31;28.00;47.10
1786;DHT22;890;48.158;11.540;2022-08-01T13:31:06;27.90;47.40
1786;DHT22;890;48.158;11.540;2022-08-01T13:33:43;27.80;48.40
1786;DHT22;890;48.158;11.540;2022-08-01T13:36:10;27.70;49.30
1786;DHT22;890;48.158;11.540;2022-08-01T13:38:36;27.80;49.20
1786;DHT22;890;48.158;11.540;2022-08-01T13:41:20;27.90;48.70
1786;DHT22;890;48.158;11.540;2022-08-01T13:43:46;28.00;48.60
1786;DHT22;890;48.158;11.540;2022-08-01T13:46:11;28.10;47.70
1786;DHT22;890;48.158;11.540;2022-08-01T13:48:37;28.20;47.10
1786;DHT22;890;48.158;11.540;2022-08-01T13:51:03;28.20;46.40
1786;DHT22;890;48.158;11.540;2022-08-01T13:53:28;28.20;46.20
1786;DHT22;890;48.158;11.540;2022-08-01T13:55:54;28.20;45.10
1786;DHT22;890;48.158;11.540;2022-08-01T13:58:20;28.20;45.60
1786;DHT22;890;48.158;11.540;2022-08-01T14:00:45;28.10;45.30
1786;DHT22;890;48.158;11.540;2022-08-01T14:03:12;28.00;45.20
1786;DHT22;890;48.158;11.540;2022-08-01T14:05:37;27.90;45.40
1786;DHT22;890;48.158;11.540;2022-08-01T14:08:03;27.90;45.70
1786;DHT22;890;48.158;11.540;2022-08-01T14:10:29;27.90;46.00
1786;DHT22;890;48.158;11.540;2022-08-01T14:12:55;27.80;45.90
1786;DHT22;890;48.158;11.540;2022-08-01T14:15:22;27.80;46.20
1786;DHT22;890;48.158;11.540;2022-08-01T14:17:49;27.80;46.90
1786;DHT22;890;48.158;11.540;2022-08-01T14:20:14;27.50;47.80
1786;DHT22;890;48.158;11.540;2022-08-01T14:22:40;27.30;48.70
1786;DHT22;890;48.158;11.540;2022-08-01T14:25:06;27.30;49.70
1786;DHT22;890;48.158;11.540;2022-08-01T14:27:32;27.40;50.80
1786;DHT22;890;48.158;11.540;2022-08-01T14:30:02;27.50;50.60
1786;DHT22;890;48.158;11.540;2022-08-01T14:32:28;27.50;51.20
1786;DHT22;890;48.158;11.540;2022-08-01T14:34:53;27.50;50.80
1786;DHT22;890;48.158;11.540;2022-08-01T14:37:19;27.50;50.90
1786;DHT22;890;48.158;11.540;2022-08-01T14:39:44;27.60;50.90
1786;DHT22;890;48.158;11.540;2022-08-01T14:42:10;27.70;50.90
1786;DHT22;890;48.158;11.540;2022-08-01T14:44:35;27.70;51.20
1786;DHT22;890;48.158;11.540;2022-08-01T14:47:01;27.70;51.00
1786;DHT22;890;48.158;11.540;2022-08-01T14:49:27;27.60;51.00
1786;DHT22;890;48.158;11.540;2022-08-01T14:51:52;27.60;51.10
1786;DHT22;890;48.158;11.540;2022-08-01T14:54:18;27.50;51.30
1786;DHT22;890;48.158;11.540;2022-08-01T14:56:44;27.40;51.20
1786;DHT22;890;48.158;11.540;2022-08-01T14:59:09;27.30;51.50
1786;DHT22;890;48.158;11.540;2022-08-01T15:01:35;27.30;51.50
1786;DHT22;890;48.158;11.540;2022-08-01T15:04:01;27.20;51.60
1786;DHT22;890;48.158;11.540;2022-08-01T15:06:26;27.10;51.20
1786;DHT22;890;48.158;11.540;2022-08-01T15:08:52;27.10;51.80
1786;DHT22;890;48.158;11.540;2022-08-01T15:11:17;27.00;52.10
1786;DHT22;890;48.158;11.540;2022-08-01T15:13:43;27.00;52.20
1786;DHT22;890;48.158;11.540;2022-08-01T15:16:09;27.10;52.40
1786;DHT22;890;48.158;11.540;2022-08-01T15:18:35;27.10;52.90
1786;DHT22;890;48.158;11.540;2022-08-01T15:21:01;27.10;53.20
1786;DHT22;890;48.158;11.540;2022-08-01T15:23:26;27.10;53.20
1786;DHT22;890;48.158;11.540;2022-08-01T15:25:52;27.00;53.00
1786;DHT22;890;48.158;11.540;2022-08-01T15:28:17;27.00;52.90
1786;DHT22;890;48.158;11.540;2022-08-01T15:30:44;26.90;54.10
1786;DHT22;890;48.158;11.540;2022-08-01T15:33:10;26.70;55.10
1786;DHT22;890;48.158;11.540;2022-08-01T15:35:35;26.40;56.10
1786;DHT22;890;48.158;11.540;2022-08-01T15:38:01;26.10;57.00
1786;DHT22;890;48.158;11.540;2022-08-01T15:40:27;25.90;57.80
1786;DHT22;890;48.158;11.540;2022-08-01T15:42:53;25.70;58.70
1786;DHT22;890;48.158;11.540;2022-08-01T15:45:19;25.50;59.30
1786;DHT22;890;48.158;11.540;2022-08-01T15:47:46;25.40;59.50
1786;DHT22;890;48.158;11.540;2022-08-01T15:50:11;25.30;59.60
1786;DHT22;890;48.158;11.540;2022-08-01T15:52:37;25.10;60.20
1786;DHT22;890;48.158;11.540;2022-08-01T15:55:03;25.10;60.90
1786;DHT22;890;48.158;11.540;2022-08-01T15:57:29;25.00;61.10
1786;DHT22;890;48.158;11.540;2022-08-01T15:59:55;25.00;61.40
1786;DHT22;890;48.158;11.540;2022-08-01T16:02:20;24.90;62.20
1786;DHT22;890;48.158;11.540;2022-08-01T16:04:46;24.90;61.90
1786;DHT22;890;48.158;11.540;2022-08-01T16:07:11;24.80;62.20
1786;DHT22;890;48.158;11.540;2022-08-01T16:09:37;24.80;62.30
1786;DHT22;890;48.158;11.540;2022-08-01T16:12:03;24.80;62.40
1786;DHT22;890;48.158;11.540;2022-08-01T16:14:29;24.70;62.70
1786;DHT22;890;48.158;11.540;2022-08-01T16:16:54;24.70;62.90
1786;DHT22;890;48.158;11.540;2022-08-01T16:19:20;24.70;63.10
1786;DHT22;890;48.158;11.540;2022-08-01T16:21:46;24.60;63.40
1786;DHT22;890;48.158;11.540;2022-08-01T16:24:11;24.60;62.60
1786;DHT22;890;48.158;11.540;2022-08-01T16:26:37;24.50;62.70
1786;DHT22;890;48.158;11.540;2022-08-01T16:29:03;24.50;63.00
1786;DHT22;890;48.158;11.540;2022-08-01T16:31:28;24.50;64.30
1786;DHT22;890;48.158;11.540;2022-08-01T16:33:54;24.40;63.50
1786;DHT22;890;48.158;11.540;2022-08-01T16:36:20;24.40;63.50
1786;DHT22;890;48.158;11.540;2022-08-01T16:38:45;24.40;63.60
1786;DHT22;890;48.158;11.540;2022-08-01T16:41:11;24.50;63.10
1786;DHT22;890;48.158;11.540;2022-08-01T16:43:37;24.50;63.00